sensor_id;sensor_type;location;lat;lon;timestamp;pressure;altitude;pressure_sealevel;temperature;humidity
49341;BME280;35209;51.050;13.678;2023-02-21T00:01:38;99842.53;;;9.34;78.86
49341;BME280;35209;51.050;13.678;2023-02-21T00:06:58;99855.56;;;9.37;78.78
49341;BME280;35209;51.050;13.678;2023-02-21T00:12:19;99849.53;;;9.35;78.57
49341;BME280;35209;51.050;13.678;2023-02-21T00:17:39;99847.19;;;9.26;79.60
49341;BME280;35209;51.050;13.678;2023-02-21T00:22:58;99847.03;;;9.30;79.27
49341;BME280;35209;51.050;13.678;2023-02-21T00:28:19;99852.28;;;9.30;79.41
49341;BME280;35209;51.050;13.678;2023-02-21T00:33:40;99859.44;;;9.25;81.44
49341;BME280;35209;51.050;13.678;2023-02-21T00:39:00;99850.22;;;9.12;81.32
49341;BME280;35209;51.050;13.678;2023-02-21T00:44:21;99842.38;;;9.10;80.62
49341;BME280;35209;51.050;13.678;2023-02-21T00:49:41;99844.59;;;9.24;79.70
49341;BME280;35209;51.050;13.678;2023-02-21T00:55:01;99842.06;;;9.21;79.89
49341;BME280;35209;51.050;13.678;2023-02-21T01:00:23;99826.22;;;9.24;79.67
49341;BME280;35209;51.050;13.678;2023-02-21T01:05:43;99816.72;;;9.20;79.50
49341;BME280;35209;51.050;13.678;2023-02-21T01:11:03;99819.28;;;9.23;79.16
49341;BME280;35209;51.050;13.678;2023-02-21T01:16:27;99820.31;;;9.18;79.54
49341;BME280;35209;51.050;13.678;2023-02-21T01:21:48;99815.84;;;9.21;79.10
49341;BME280;35209;51.050;13.678;2023-02-21T01:27:08;99804.16;;;9.31;78.51
49341;BME280;35209;51.050;13.678;2023-02-21T01:32:28;99810.41;;;9.27;78.70
49341;BME280;35209;51.050;13.678;2023-02-21T01:37:49;99796.38;;;9.28;79.06
49341;BME280;35209;51.050;13.678;2023-02-21T01:43:18;99802.53;;;9.27;79.00
49341;BME280;35209;51.050;13.678;2023-02-21T01:48:39;99810.47;;;9.26;79.29
49341;BME280;35209;51.050;13.678;2023-02-21T01:53:59;99800.72;;;9.29;79.33
49341;BME280;35209;51.050;13.678;2023-02-21T01:59:21;99797.94;;;9.34;79.39
49341;BME280;35209;51.050;13.678;2023-02-21T02:04:43;99792.84;;;9.29;79.65
49341;BME280;35209;51.050;13.678;2023-02-21T02:10:07;99782.97;;;9.38;79.10
49341;BME280;35209;51.050;13.678;2023-02-21T02:15:39;99785.28;;;9.48;78.83
49341;BME280;35209;51.050;13.678;2023-02-21T02:36:48;99773.81;;;9.51;79.21
49341;BME280;35209;51.050;13.678;2023-02-21T02:47:13;99768.41;;;9.57;78.81
49341;BME280;35209;51.050;13.678;2023-02-21T02:52:16;99747.84;;;9.43;79.67
49341;BME280;35209;51.050;13.678;2023-02-21T02:57:18;99758.94;;;9.51;79.53
49341;BME280;35209;51.050;13.678;2023-02-21T03:07:49;99757.06;;;9.56;79.91
49341;BME280;35209;51.050;13.678;2023-02-21T03:13:11;99761.75;;;9.45;80.69
49341;BME280;35209;51.050;13.678;2023-02-21T03:18:30;99753.91;;;9.45;80.89
49341;BME280;35209;51.050;13.678;2023-02-21T03:23:36;99751.81;;;9.56;80.40
49341;BME280;35209;51.050;13.678;2023-02-21T03:28:40;99736.16;;;9.53;81.14
49341;BME280;35209;51.050;13.678;2023-02-21T03:33:42;99740.47;;;9.54;81.13
49341;BME280;35209;51.050;13.678;2023-02-21T03:38:45;99740.69;;;9.48;81.81
49341;BME280;35209;51.050;13.678;2023-02-21T03:43:47;99727.91;;;9.64;81.23
49341;BME280;35209;51.050;13.678;2023-02-21T03:48:49;99731.38;;;9.65;81.15
49341;BME280;35209;51.050;13.678;2023-02-21T03:53:56;99749.06;;;9.59;81.43
49341;BME280;35209;51.050;13.678;2023-02-21T03:59:05;99755.13;;;9.62;81.71
49341;BME280;35209;51.050;13.678;2023-02-21T04:04:07;99738.25;;;9.69;81.34
49341;BME280;35209;51.050;13.678;2023-02-21T04:09:09;99748.03;;;9.65;81.77
49341;BME280;35209;51.050;13.678;2023-02-21T04:14:12;99742.88;;;9.62;81.97
49341;BME280;35209;51.050;13.678;2023-02-21T04:19:14;99743.50;;;9.69;82.16
49341;BME280;35209;51.050;13.678;2023-02-21T04:24:17;99743.63;;;9.66;82.70
49341;BME280;35209;51.050;13.678;2023-02-21T04:29:19;99746.59;;;9.55;83.80
49341;BME280;35209;51.050;13.678;2023-02-21T04:34:21;99744.63;;;9.62;83.44
49341;BME280;35209;51.050;13.678;2023-02-21T04:39:23;99735.84;;;9.63;83.86
49341;BME280;35209;51.050;13.678;2023-02-21T04:44:25;99733.38;;;9.58;84.50
49341;BME280;35209;51.050;13.678;2023-02-21T04:49:27;99743.66;;;9.64;84.62
49341;BME280;35209;51.050;13.678;2023-02-21T04:54:29;99748.91;;;9.64;84.67
49341;BME280;35209;51.050;13.678;2023-02-21T04:59:30;99741.88;;;9.65;84.99
49341;BME280;35209;51.050;13.678;2023-02-21T05:04:32;99735.63;;;9.69;85.04
49341;BME280;35209;51.050;13.678;2023-02-21T05:09:34;99734.78;;;9.68;85.29
49341;BME280;35209;51.050;13.678;2023-02-21T05:14:37;99727.72;;;9.70;85.14
49341;BME280;35209;51.050;13.678;2023-02-21T05:19:39;99721.25;;;9.80;84.21
49341;BME280;35209;51.050;13.678;2023-02-21T05:24:41;99719.69;;;9.75;84.90
49341;BME280;35209;51.050;13.678;2023-02-21T05:29:47;99722.31;;;9.75;84.62
49341;BME280;35209;51.050;13.678;2023-02-21T05:34:50;99721.66;;;9.68;85.21
49341;BME280;35209;51.050;13.678;2023-02-21T05:39:51;99721.78;;;9.65;85.42
49341;BME280;35209;51.050;13.678;2023-02-21T05:44:53;99735.84;;;9.63;85.84
49341;BME280;35209;51.050;13.678;2023-02-21T05:49:55;99746.44;;;9.59;85.98
49341;BME280;35209;51.050;13.678;2023-02-21T05:54:57;99751.44;;;9.67;85.87
49341;BME280;35209;51.050;13.678;2023-02-21T06:00:02;99759.97;;;9.74;85.36
49341;BME280;35209;51.050;13.678;2023-02-21T06:05:12;99752.53;;;9.60;86.21
49341;BME280;35209;51.050;13.678;2023-02-21T06:10:15;99755.00;;;9.65;86.05
49341;BME280;35209;51.050;13.678;2023-02-21T06:15:17;99765.34;;;9.71;85.45
49341;BME280;35209;51.050;13.678;2023-02-21T06:20:19;99781.88;;;9.73;85.44
49341;BME280;35209;51.050;13.678;2023-02-21T06:25:20;99769.72;;;9.70;85.58
49341;BME280;35209;51.050;13.678;2023-02-21T06:30:23;99777.78;;;9.64;86.15
49341;BME280;35209;51.050;13.678;2023-02-21T06:35:29;99782.03;;;9.68;86.09
49341;BME280;35209;51.050;13.678;2023-02-21T06:40:35;99784.56;;;9.71;85.69
49341;BME280;35209;51.050;13.678;2023-02-21T06:45:37;99800.31;;;9.71;85.91
49341;BME280;35209;51.050;13.678;2023-02-21T06:50:39;99798.53;;;9.72;85.64
49341;BME280;35209;51.050;13.678;2023-02-21T06:55:40;99791.22;;;9.81;85.09
49341;BME280;35209;51.050;13.678;2023-02-21T07:00:42;99812.38;;;9.77;85.61
49341;BME280;35209;51.050;13.678;2023-02-21T07:05:44;99810.34;;;9.85;85.00
49341;BME280;35209;51.050;13.678;2023-02-21T07:10:46;99818.94;;;9.90;84.78
49341;BME280;35209;51.050;13.678;2023-02-21T07:15:48;99852.41;;;9.83;85.64
49341;BME280;35209;51.050;13.678;2023-02-21T07:20:50;99829.50;;;9.89;85.46
49341;BME280;35209;51.050;13.678;2023-02-21T07:25:51;99839.09;;;9.90;85.37
49341;BME280;35209;51.050;13.678;2023-02-21T07:30:53;99848.69;;;9.91;85.39
49341;BME280;35209;51.050;13.678;2023-02-21T07:35:55;99853.84;;;9.94;84.86
49341;BME280;35209;51.050;13.678;2023-02-21T07:40:59;99862.63;;;9.93;84.86
49341;BME280;35209;51.050;13.678;2023-02-21T07:46:01;99859.22;;;9.89;85.64
49341;BME280;35209;51.050;13.678;2023-02-21T07:51:04;99871.44;;;9.90;85.31
49341;BME280;35209;51.050;13.678;2023-02-21T07:56:07;99867.97;;;9.90;85.65
49341;BME280;35209;51.050;13.678;2023-02-21T08:01:08;99875.75;;;9.93;85.57
49341;BME280;35209;51.050;13.678;2023-02-21T08:06:11;99877.53;;;9.92;85.68
49341;BME280;35209;51.050;13.678;2023-02-21T08:11:12;99874.31;;;9.82;86.83
49341;BME280;35209;51.050;13.678;2023-02-21T08:16:15;99884.66;;;9.87;86.23
49341;BME280;35209;51.050;13.678;2023-02-21T08:21:16;99878.25;;;9.96;85.55
49341;BME280;35209;51.050;13.678;2023-02-21T08:26:18;99871.34;;;9.93;86.25
49341;BME280;35209;51.050;13.678;2023-02-21T08:31:20;99875.06;;;9.88;86.93
49341;BME280;35209;51.050;13.678;2023-02-21T08:36:33;99881.59;;;9.74;88.33
49341;BME280;35209;51.050;13.678;2023-02-21T08:41:43;99878.19;;;9.99;86.90
49341;BME280;35209;51.050;13.678;2023-02-21T08:46:46;99878.94;;;10.02;86.38
49341;BME280;35209;51.050;13.678;2023-02-21T08:51:50;99876.81;;;10.14;84.83
49341;BME280;35209;51.050;13.678;2023-02-21T08:56:51;99876.50;;;10.24;84.16
49341;BME280;35209;51.050;13.678;2023-02-21T09:01:55;99875.25;;;10.36;84.14
49341;BME280;35209;51.050;13.678;2023-02-21T09:06:56;99874.47;;;10.59;82.10
49341;BME280;35209;51.050;13.678;2023-02-21T09:11:58;99880.44;;;10.64;81.96
49341;BME280;35209;51.050;13.678;2023-02-21T09:17:00;99872.44;;;10.67;80.28
49341;BME280;35209;51.050;13.678;2023-02-21T09:22:01;99884.94;;;10.60;81.15
49341;BME280;35209;51.050;13.678;2023-02-21T09:27:05;99892.81;;;10.60;81.52
49341;BME280;35209;51.050;13.678;2023-02-21T09:32:07;99894.69;;;10.57;81.54
49341;BME280;35209;51.050;13.678;2023-02-21T09:37:08;99887.13;;;10.73;81.41
49341;BME280;35209;51.050;13.678;2023-02-21T09:42:17;99888.03;;;10.97;80.17
49341;BME280;35209;51.050;13.678;2023-02-21T09:47:28;99888.47;;;11.09;80.07
49341;BME280;35209;51.050;13.678;2023-02-21T09:52:38;99899.41;;;11.22;79.27
49341;BME280;35209;51.050;13.678;2023-02-21T09:57:40;99900.16;;;11.26;78.78
49341;BME280;35209;51.050;13.678;2023-02-21T10:08:24;99905.63;;;11.20;79.31
49341;BME280;35209;51.050;13.678;2023-02-21T10:23:57;99911.13;;;11.37;77.27
49341;BME280;35209;51.050;13.678;2023-02-21T10:29:21;99918.91;;;11.40;75.86
49341;BME280;35209;51.050;13.678;2023-02-21T10:34:26;99926.88;;;11.39;76.47
49341;BME280;35209;51.050;13.678;2023-02-21T10:39:49;99919.38;;;11.51;75.66
49341;BME280;35209;51.050;13.678;2023-02-21T10:44:53;99924.25;;;11.39;76.08
49341;BME280;35209;51.050;13.678;2023-02-21T10:50:02;99926.03;;;11.38;76.65
49341;BME280;35209;51.050;13.678;2023-02-21T10:55:13;99922.84;;;11.28;75.50
49341;BME280;35209;51.050;13.678;2023-02-21T11:00:36;99930.00;;;11.25;76.33
49341;BME280;35209;51.050;13.678;2023-02-21T11:05:39;99921.81;;;11.32;75.38
49341;BME280;35209;51.050;13.678;2023-02-21T11:10:42;99919.00;;;11.37;76.32
49341;BME280;35209;51.050;13.678;2023-02-21T11:15:44;99918.13;;;11.38;75.76
49341;BME280;35209;51.050;13.678;2023-02-21T11:20:47;99907.22;;;11.24;76.73
49341;BME280;35209;51.050;13.678;2023-02-21T11:25:51;99911.47;;;11.28;76.64
49341;BME280;35209;51.050;13.678;2023-02-21T11:41:51;99905.34;;;11.27;77.11
49341;BME280;35209;51.050;13.678;2023-02-21T11:47:20;99904.78;;;11.43;75.83
49341;BME280;35209;51.050;13.678;2023-02-21T11:52:43;99913.91;;;11.32;76.41
49341;BME280;35209;51.050;13.678;2023-02-21T12:13:52;99913.41;;;10.98;79.00
49341;BME280;35209;51.050;13.678;2023-02-21T12:19:24;99907.78;;;11.08;78.65
49341;BME280;35209;51.050;13.678;2023-02-21T12:46:30;99882.41;;;11.31;76.82
49341;BME280;35209;51.050;13.678;2023-02-21T12:51:38;99878.06;;;11.30;76.00
49341;BME280;35209;51.050;13.678;2023-02-21T12:57:04;99883.56;;;11.47;76.41
49341;BME280;35209;51.050;13.678;2023-02-21T13:02:20;99874.56;;;11.53;76.56
49341;BME280;35209;51.050;13.678;2023-02-21T13:07:32;99870.09;;;11.31;77.28
49341;BME280;35209;51.050;13.678;2023-02-21T13:12:39;99861.41;;;11.53;76.34
49341;BME280;35209;51.050;13.678;2023-02-21T13:28:54;99857.66;;;11.58;75.48
49341;BME280;35209;51.050;13.678;2023-02-21T13:33:59;99850.13;;;11.49;75.68
49341;BME280;35209;51.050;13.678;2023-02-21T13:44:37;99842.47;;;11.20;76.76
49341;BME280;35209;51.050;13.678;2023-02-21T13:49:56;99851.53;;;11.13;77.34
49341;BME280;35209;51.050;13.678;2023-02-21T13:55:09;99855.09;;;11.11;77.62
49341;BME280;35209;51.050;13.678;2023-02-21T14:05:22;99862.38;;;11.27;76.49
49341;BME280;35209;51.050;13.678;2023-02-21T14:10:37;99859.06;;;11.22;77.17
49341;BME280;35209;51.050;13.678;2023-02-21T14:15:43;99857.28;;;11.22;77.22
49341;BME280;35209;51.050;13.678;2023-02-21T14:20:47;99864.69;;;11.13;77.46
49341;BME280;35209;51.050;13.678;2023-02-21T14:25:58;99856.22;;;11.04;78.55
49341;BME280;35209;51.050;13.678;2023-02-21T14:31:02;99856.63;;;11.17;78.34
49341;BME280;35209;51.050;13.678;2023-02-21T14:36:06;99848.72;;;11.17;77.69
49341;BME280;35209;51.050;13.678;2023-02-21T14:41:24;99855.44;;;11.24;77.75
49341;BME280;35209;51.050;13.678;2023-02-21T14:52:43;99854.06;;;11.16;78.71
49341;BME280;35209;51.050;13.678;2023-02-21T15:04:07;99858.28;;;11.43;76.72
49341;BME280;35209;51.050;13.678;2023-02-21T15:09:18;99855.88;;;11.14;78.06
49341;BME280;35209;51.050;13.678;2023-02-21T15:14:26;99846.31;;;11.11;78.87
49341;BME280;35209;51.050;13.678;2023-02-21T15:19:33;99849.16;;;11.05;79.09
49341;BME280;35209;51.050;13.678;2023-02-21T15:24:36;99846.47;;;11.06;78.98
49341;BME280;35209;51.050;13.678;2023-02-21T15:29:39;99850.50;;;11.17;78.20
49341;BME280;35209;51.050;13.678;2023-02-21T15:34:44;99857.91;;;11.05;78.63
49341;BME280;35209;51.050;13.678;2023-02-21T15:39:51;99867.91;;;10.96;79.67
49341;BME280;35209;51.050;13.678;2023-02-21T15:45:02;99870.16;;;11.06;78.08
49341;BME280;35209;51.050;13.678;2023-02-21T15:55:29;99875.88;;;11.18;77.63
49341;BME280;35209;51.050;13.678;2023-02-21T16:00:37;99875.00;;;10.94;79.58
49341;BME280;35209;51.050;13.678;2023-02-21T16:05:39;99875.63;;;11.00;78.67
49341;BME280;35209;51.050;13.678;2023-02-21T16:10:41;99880.66;;;11.06;78.19
49341;BME280;35209;51.050;13.678;2023-02-21T16:15:44;99885.19;;;11.03;78.41
49341;BME280;35209;51.050;13.678;2023-02-21T16:20:58;99882.84;;;10.95;79.30
49341;BME280;35209;51.050;13.678;2023-02-21T16:26:02;99892.22;;;10.77;80.54
49341;BME280;35209;51.050;13.678;2023-02-21T16:31:30;99886.81;;;10.82;80.15
49341;BME280;35209;51.050;13.678;2023-02-21T16:36:32;99898.28;;;10.79;80.18
49341;BME280;35209;51.050;13.678;2023-02-21T16:41:35;99896.91;;;10.94;78.95
49341;BME280;35209;51.050;13.678;2023-02-21T16:46:37;99904.13;;;10.88;79.62
49341;BME280;35209;51.050;13.678;2023-02-21T16:51:39;99900.75;;;10.84;79.76
49341;BME280;35209;51.050;13.678;2023-02-21T16:56:46;99906.50;;;10.95;78.29
49341;BME280;35209;51.050;13.678;2023-02-21T17:01:51;99907.63;;;10.88;78.48
49341;BME280;35209;51.050;13.678;2023-02-21T17:06:59;99906.75;;;10.89;78.58
49341;BME280;35209;51.050;13.678;2023-02-21T17:12:01;99906.59;;;10.92;78.22
49341;BME280;35209;51.050;13.678;2023-02-21T17:17:03;99916.44;;;10.87;78.77
49341;BME280;35209;51.050;13.678;2023-02-21T17:22:08;99917.50;;;10.81;78.89
49341;BME280;35209;51.050;13.678;2023-02-21T17:27:10;99924.34;;;10.60;80.52
49341;BME280;35209;51.050;13.678;2023-02-21T17:32:12;99925.28;;;10.59;80.54
49341;BME280;35209;51.050;13.678;2023-02-21T17:37:17;99929.09;;;10.76;79.59
49341;BME280;35209;51.050;13.678;2023-02-21T17:42:19;99933.84;;;10.65;80.12
49341;BME280;35209;51.050;13.678;2023-02-21T17:47:21;99932.00;;;10.68;79.23
49341;BME280;35209;51.050;13.678;2023-02-21T17:52:25;99932.25;;;10.60;80.37
49341;BME280;35209;51.050;13.678;2023-02-21T17:57:27;99941.13;;;10.56;79.94
49341;BME280;35209;51.050;13.678;2023-02-21T18:02:30;99944.91;;;10.74;78.29
49341;BME280;35209;51.050;13.678;2023-02-21T18:07:32;99939.28;;;10.60;78.57
49341;BME280;35209;51.050;13.678;2023-02-21T18:12:35;99941.81;;;10.63;77.88
49341;BME280;35209;51.050;13.678;2023-02-21T18:17:38;99957.50;;;10.65;76.91
49341;BME280;35209;51.050;13.678;2023-02-21T18:22:41;99962.78;;;10.65;76.47
49341;BME280;35209;51.050;13.678;2023-02-21T18:27:43;99966.72;;;10.23;77.93
49341;BME280;35209;51.050;13.678;2023-02-21T18:32:45;99970.50;;;10.13;78.39
49341;BME280;35209;51.050;13.678;2023-02-21T18:37:47;99964.09;;;10.23;78.31
49341;BME280;35209;51.050;13.678;2023-02-21T18:42:51;99965.59;;;10.32;77.72
49341;BME280;35209;51.050;13.678;2023-02-21T18:47:53;99969.03;;;10.34;77.82
49341;BME280;35209;51.050;13.678;2023-02-21T18:52:54;99966.06;;;10.45;76.95
49341;BME280;35209;51.050;13.678;2023-02-21T18:57:57;99964.44;;;10.41;77.10
49341;BME280;35209;51.050;13.678;2023-02-21T19:02:59;99957.91;;;10.52;76.79
49341;BME280;35209;51.050;13.678;2023-02-21T19:08:01;99966.03;;;10.17;78.76
49341;BME280;35209;51.050;13.678;2023-02-21T19:13:03;99968.88;;;10.09;79.56
49341;BME280;35209;51.050;13.678;2023-02-21T19:18:06;99975.25;;;10.02;79.27
49341;BME280;35209;51.050;13.678;2023-02-21T19:23:08;99973.56;;;9.99;79.12
49341;BME280;35209;51.050;13.678;2023-02-21T19:28:09;99985.25;;;10.19;78.02
49341;BME280;35209;51.050;13.678;2023-02-21T19:38:28;99984.97;;;9.98;79.31
49341;BME280;35209;51.050;13.678;2023-02-21T19:43:31;99998.75;;;10.06;78.87
49341;BME280;35209;51.050;13.678;2023-02-21T19:48:33;99999.97;;;9.95;80.23
49341;BME280;35209;51.050;13.678;2023-02-21T19:53:34;100005.34;;;9.90;79.93
49341;BME280;35209;51.050;13.678;2023-02-21T19:58:36;100014.16;;;10.17;78.19
49341;BME280;35209;51.050;13.678;2023-02-21T20:03:38;100010.25;;;10.02;79.30
49341;BME280;35209;51.050;13.678;2023-02-21T20:08:42;100012.69;;;10.08;79.66
49341;BME280;35209;51.050;13.678;2023-02-21T20:13:49;100015.41;;;10.05;80.26
49341;BME280;35209;51.050;13.678;2023-02-21T20:18:51;100022.03;;;10.17;79.79
49341;BME280;35209;51.050;13.678;2023-02-21T20:23:55;100019.91;;;10.02;79.94
49341;BME280;35209;51.050;13.678;2023-02-21T20:28:58;100015.84;;;9.92;79.99
49341;BME280;35209;51.050;13.678;2023-02-21T20:34:00;100016.31;;;10.04;79.14
49341;BME280;35209;51.050;13.678;2023-02-21T20:39:19;100021.03;;;9.93;79.97
49341;BME280;35209;51.050;13.678;2023-02-21T20:44:21;100018.41;;;9.93;80.40
49341;BME280;35209;51.050;13.678;2023-02-21T20:49:23;100012.16;;;9.97;80.42
49341;BME280;35209;51.050;13.678;2023-02-21T20:54:24;100014.00;;;9.94;80.15
49341;BME280;35209;51.050;13.678;2023-02-21T20:59:28;100010.81;;;9.82;80.42
49341;BME280;35209;51.050;13.678;2023-02-21T21:04:36;100010.81;;;9.82;80.19
49341;BME280;35209;51.050;13.678;2023-02-21T21:09:39;100008.50;;;9.72;79.83
49341;BME280;35209;51.050;13.678;2023-02-21T21:14:42;100016.38;;;9.72;79.86
49341;BME280;35209;51.050;13.678;2023-02-21T21:19:46;100012.97;;;9.70;79.65
49341;BME280;35209;51.050;13.678;2023-02-21T21:24:49;100014.97;;;9.60;80.24
49341;BME280;35209;51.050;13.678;2023-02-21T21:29:51;100012.56;;;9.52;80.91
49341;BME280;35209;51.050;13.678;2023-02-21T21:34:57;100017.16;;;9.75;79.01
49341;BME280;35209;51.050;13.678;2023-02-21T21:39:59;100007.53;;;9.76;78.52
49341;BME280;35209;51.050;13.678;2023-02-21T21:45:17;100014.16;;;9.58;78.73
49341;BME280;35209;51.050;13.678;2023-02-21T21:50:20;100014.09;;;9.61;78.89
49341;BME280;35209;51.050;13.678;2023-02-21T21:55:25;100017.97;;;9.77;77.95
49341;BME280;35209;51.050;13.678;2023-02-21T22:00:28;100020.25;;;9.58;78.48
49341;BME280;35209;51.050;13.678;2023-02-21T22:05:31;100024.72;;;9.56;79.08
49341;BME280;35209;51.050;13.678;2023-02-21T22:10:32;100025.84;;;9.46;79.78
49341;BME280;35209;51.050;13.678;2023-02-21T22:15:34;100024.91;;;9.49;79.15
49341;BME280;35209;51.050;13.678;2023-02-21T22:20:36;100025.50;;;9.58;78.90
49341;BME280;35209;51.050;13.678;2023-02-21T22:25:38;100033.97;;;9.70;78.30
49341;BME280;35209;51.050;13.678;2023-02-21T22:30:40;100024.19;;;9.42;80.20
49341;BME280;35209;51.050;13.678;2023-02-21T22:35:42;100026.09;;;9.37;80.60
49341;BME280;35209;51.050;13.678;2023-02-21T22:40:44;100032.25;;;9.36;80.88
49341;BME280;35209;51.050;13.678;2023-02-21T22:45:46;100034.38;;;9.54;80.22
49341;BME280;35209;51.050;13.678;2023-02-21T22:50:51;100031.09;;;9.46;80.66
49341;BME280;35209;51.050;13.678;2023-02-21T22:55:58;100022.44;;;9.10;82.73
49341;BME280;35209;51.050;13.678;2023-02-21T23:01:03;100023.47;;;9.04;83.70
49341;BME280;35209;51.050;13.678;2023-02-21T23:06:08;100020.78;;;9.07;83.89
49341;BME280;35209;51.050;13.678;2023-02-21T23:11:16;100017.63;;;8.93;84.90
49341;BME280;35209;51.050;13.678;2023-02-21T23:16:20;100019.63;;;8.83;85.80
49341;BME280;35209;51.050;13.678;2023-02-21T23:21:22;100015.34;;;8.81;85.75
49341;BME280;35209;51.050;13.678;2023-02-21T23:26:24;100018.69;;;8.86;85.17
49341;BME280;35209;51.050;13.678;2023-02-21T23:31:26;100022.19;;;8.85;85.33
49341;BME280;35209;51.050;13.678;2023-02-21T23:36:28;100023.81;;;8.91;84.44
49341;BME280;35209;51.050;13.678;2023-02-21T23:41:29;100017.84;;;8.84;85.12
49341;BME280;35209;51.050;13.678;2023-02-21T23:46:35;100010.84;;;8.86;84.84
49341;BME280;35209;51.050;13.678;2023-02-21T23:51:41;100011.03;;;9.11;83.41
49341;BME280;35209;51.050;13.678;2023-02-21T23:56:46;100017.81;;;9.20;82.13
